sensor_id;sensor_type;location;lat;lon;timestamp;P1;durP1;ratioP1;P2;durP2;ratioP2
65073;SDS011;52218;51.224;-2.328;2022-12-29T00:01:44;9.50;;;1.88;;
65073;SDS011;52218;51.224;-2.328;2022-12-29T00:05:27;10.85;;;2.00;;
65073;SDS011;52218;51.224;-2.328;2022-12-29T00:09:10;9.57;;;2.33;;
65073;SDS011;52218;51.224;-2.328;2022-12-29T00:12:56;8.40;;;1.70;;
65073;SDS011;52218;51.224;-2.328;2022-12-29T00:16:56;9.88;;;1.83;;
65073;SDS011;52218;51.224;-2.328;2022-12-29T00:20:39;14.23;;;2.50;;
65073;SDS011;52218;51.224;-2.328;2022-12-29T00:24:39;9.80;;;2.10;;
65073;SDS011;52218;51.224;-2.328;2022-12-29T00:28:40;12.32;;;1.98;;
65073;SDS011;52218;51.224;-2.328;2022-12-29T00:32:45;10.00;;;1.90;;
65073;SDS011;52218;51.224;-2.328;2022-12-29T00:36:45;9.02;;;1.73;;
65073;SDS011;52218;51.224;-2.328;2022-12-29T00:40:27;9.82;;;2.30;;
65073;SDS011;52218;51.224;-2.328;2022-12-29T00:44:28;8.98;;;1.88;;
65073;SDS011;52218;51.224;-2.328;2022-12-29T00:48:10;7.57;;;1.60;;
65073;SDS011;52218;51.224;-2.328;2022-12-29T00:51:52;10.18;;;1.88;;
65073;SDS011;52218;51.224;-2.328;2022-12-29T00:55:38;10.80;;;2.17;;
65073;SDS011;52218;51.224;-2.328;2022-12-29T00:59:20;6.75;;;1.90;;
65073;SDS011;52218;51.224;-2.328;2022-12-29T01:03:02;10.90;;;2.45;;
65073;SDS011;52218;51.224;-2.328;2022-12-29T01:06:44;12.93;;;2.13;;
65073;SDS011;52218;51.224;-2.328;2022-12-29T01:10:26;8.35;;;1.83;;
65073;SDS011;52218;51.224;-2.328;2022-12-29T01:14:08;10.25;;;2.35;;
65073;SDS011;52218;51.224;-2.328;2022-12-29T01:17:50;9.88;;;1.88;;
65073;SDS011;52218;51.224;-2.328;2022-12-29T01:21:32;9.07;;;1.88;;
65073;SDS011;52218;51.224;-2.328;2022-12-29T01:25:14;17.35;;;2.95;;
65073;SDS011;52218;51.224;-2.328;2022-12-29T01:28:58;10.70;;;2.10;;
65073;SDS011;52218;51.224;-2.328;2022-12-29T01:32:40;12.07;;;2.20;;
65073;SDS011;52218;51.224;-2.328;2022-12-29T01:36:23;12.45;;;2.08;;
65073;SDS011;52218;51.224;-2.328;2022-12-29T01:40:06;8.32;;;1.48;;
65073;SDS011;52218;51.224;-2.328;2022-12-29T01:43:53;10.13;;;1.98;;
65073;SDS011;52218;51.224;-2.328;2022-12-29T01:47:41;9.13;;;1.80;;
65073;SDS011;52218;51.224;-2.328;2022-12-29T01:51:27;8.63;;;2.13;;
65073;SDS011;52218;51.224;-2.328;2022-12-29T01:55:13;6.53;;;1.63;;
65073;SDS011;52218;51.224;-2.328;2022-12-29T01:59:00;11.65;;;2.33;;
65073;SDS011;52218;51.224;-2.328;2022-12-29T02:02:47;8.52;;;1.98;;
65073;SDS011;52218;51.224;-2.328;2022-12-29T02:06:36;10.85;;;2.00;;
65073;SDS011;52218;51.224;-2.328;2022-12-29T02:10:25;8.10;;;1.75;;
65073;SDS011;52218;51.224;-2.328;2022-12-29T02:14:09;9.43;;;2.33;;
65073;SDS011;52218;51.224;-2.328;2022-12-29T02:41:13;7.80;;;1.77;;
65073;SDS011;52218;51.224;-2.328;2022-12-29T02:52:51;10.65;;;2.45;;
65073;SDS011;52218;51.224;-2.328;2022-12-29T02:56:40;7.38;;;1.70;;
65073;SDS011;52218;51.224;-2.328;2022-12-29T03:00:22;9.75;;;2.70;;
65073;SDS011;52218;51.224;-2.328;2022-12-29T03:08:18;12.57;;;2.50;;
65073;SDS011;52218;51.224;-2.328;2022-12-29T03:16:04;8.48;;;1.65;;
65073;SDS011;52218;51.224;-2.328;2022-12-29T03:20:04;11.90;;;2.45;;
65073;SDS011;52218;51.224;-2.328;2022-12-29T03:23:50;6.38;;;1.40;;
65073;SDS011;52218;51.224;-2.328;2022-12-29T03:27:33;7.72;;;1.40;;
65073;SDS011;52218;51.224;-2.328;2022-12-29T03:31:20;8.77;;;1.90;;
65073;SDS011;52218;51.224;-2.328;2022-12-29T03:35:04;8.50;;;1.52;;
65073;SDS011;52218;51.224;-2.328;2022-12-29T03:38:59;5.55;;;1.33;;
65073;SDS011;52218;51.224;-2.328;2022-12-29T03:42:45;7.93;;;1.17;;
65073;SDS011;52218;51.224;-2.328;2022-12-29T03:46:28;4.82;;;0.93;;
65073;SDS011;52218;51.224;-2.328;2022-12-29T03:50:11;4.20;;;1.00;;
65073;SDS011;52218;51.224;-2.328;2022-12-29T03:53:54;4.32;;;0.68;;
65073;SDS011;52218;51.224;-2.328;2022-12-29T03:57:36;4.47;;;0.70;;
65073;SDS011;52218;51.224;-2.328;2022-12-29T04:01:18;2.95;;;0.80;;
65073;SDS011;52218;51.224;-2.328;2022-12-29T04:05:00;6.10;;;1.50;;
65073;SDS011;52218;51.224;-2.328;2022-12-29T04:08:42;4.90;;;0.90;;
65073;SDS011;52218;51.224;-2.328;2022-12-29T04:12:24;5.00;;;0.93;;
65073;SDS011;52218;51.224;-2.328;2022-12-29T04:16:07;4.88;;;1.13;;
65073;SDS011;52218;51.224;-2.328;2022-12-29T04:19:49;6.45;;;1.10;;
65073;SDS011;52218;51.224;-2.328;2022-12-29T04:23:33;6.28;;;1.02;;
65073;SDS011;52218;51.224;-2.328;2022-12-29T04:27:17;7.72;;;1.30;;
65073;SDS011;52218;51.224;-2.328;2022-12-29T04:30:59;8.25;;;1.30;;
65073;SDS011;52218;51.224;-2.328;2022-12-29T04:34:41;3.72;;;0.90;;
65073;SDS011;52218;51.224;-2.328;2022-12-29T04:38:23;6.80;;;1.23;;
65073;SDS011;52218;51.224;-2.328;2022-12-29T04:42:05;7.65;;;1.33;;
65073;SDS011;52218;51.224;-2.328;2022-12-29T04:45:47;5.65;;;1.05;;
65073;SDS011;52218;51.224;-2.328;2022-12-29T04:49:29;4.50;;;1.00;;
65073;SDS011;52218;51.224;-2.328;2022-12-29T04:53:11;9.10;;;1.35;;
65073;SDS011;52218;51.224;-2.328;2022-12-29T04:56:53;6.18;;;1.05;;
65073;SDS011;52218;51.224;-2.328;2022-12-29T05:00:35;4.22;;;0.80;;
65073;SDS011;52218;51.224;-2.328;2022-12-29T05:04:17;5.32;;;1.20;;
65073;SDS011;52218;51.224;-2.328;2022-12-29T05:07:59;5.43;;;1.33;;
65073;SDS011;52218;51.224;-2.328;2022-12-29T05:11:41;5.13;;;1.20;;
65073;SDS011;52218;51.224;-2.328;2022-12-29T05:15:24;8.57;;;1.30;;
65073;SDS011;52218;51.224;-2.328;2022-12-29T05:19:06;9.32;;;1.23;;
65073;SDS011;52218;51.224;-2.328;2022-12-29T05:22:48;7.13;;;1.50;;
65073;SDS011;52218;51.224;-2.328;2022-12-29T05:26:31;6.57;;;1.20;;
65073;SDS011;52218;51.224;-2.328;2022-12-29T05:30:13;4.82;;;0.90;;
65073;SDS011;52218;51.224;-2.328;2022-12-29T05:33:55;5.47;;;1.15;;
65073;SDS011;52218;51.224;-2.328;2022-12-29T05:37:37;8.02;;;1.05;;
65073;SDS011;52218;51.224;-2.328;2022-12-29T05:41:19;4.30;;;0.93;;
65073;SDS011;52218;51.224;-2.328;2022-12-29T05:45:01;5.13;;;0.93;;
65073;SDS011;52218;51.224;-2.328;2022-12-29T05:48:43;6.43;;;1.27;;
65073;SDS011;52218;51.224;-2.328;2022-12-29T05:52:25;6.68;;;1.00;;
65073;SDS011;52218;51.224;-2.328;2022-12-29T05:56:07;6.30;;;0.73;;
65073;SDS011;52218;51.224;-2.328;2022-12-29T05:59:49;4.22;;;0.60;;
65073;SDS011;52218;51.224;-2.328;2022-12-29T06:03:31;3.53;;;0.60;;
65073;SDS011;52218;51.224;-2.328;2022-12-29T06:07:13;6.22;;;0.77;;
65073;SDS011;52218;51.224;-2.328;2022-12-29T06:10:55;12.15;;;1.45;;
65073;SDS011;52218;51.224;-2.328;2022-12-29T06:14:38;5.47;;;0.80;;
65073;SDS011;52218;51.224;-2.328;2022-12-29T06:18:20;3.95;;;0.60;;
65073;SDS011;52218;51.224;-2.328;2022-12-29T06:22:02;4.18;;;0.70;;
65073;SDS011;52218;51.224;-2.328;2022-12-29T06:25:44;3.53;;;0.70;;
65073;SDS011;52218;51.224;-2.328;2022-12-29T06:29:28;4.28;;;0.60;;
65073;SDS011;52218;51.224;-2.328;2022-12-29T06:33:10;3.53;;;0.93;;
65073;SDS011;52218;51.224;-2.328;2022-12-29T06:36:52;5.03;;;0.60;;
65073;SDS011;52218;51.224;-2.328;2022-12-29T06:40:35;3.50;;;0.60;;
65073;SDS011;52218;51.224;-2.328;2022-12-29T06:44:17;5.97;;;0.70;;
65073;SDS011;52218;51.224;-2.328;2022-12-29T06:47:59;3.90;;;0.82;;
65073;SDS011;52218;51.224;-2.328;2022-12-29T06:51:41;4.15;;;0.65;;
65073;SDS011;52218;51.224;-2.328;2022-12-29T06:55:23;4.38;;;0.70;;
65073;SDS011;52218;51.224;-2.328;2022-12-29T06:59:05;5.35;;;1.08;;
65073;SDS011;52218;51.224;-2.328;2022-12-29T07:02:47;4.32;;;0.80;;
65073;SDS011;52218;51.224;-2.328;2022-12-29T07:06:29;2.55;;;0.82;;
65073;SDS011;52218;51.224;-2.328;2022-12-29T07:10:11;5.00;;;0.80;;
65073;SDS011;52218;51.224;-2.328;2022-12-29T07:13:53;3.53;;;0.70;;
65073;SDS011;52218;51.224;-2.328;2022-12-29T07:17:35;4.53;;;0.80;;
65073;SDS011;52218;51.224;-2.328;2022-12-29T07:21:18;6.00;;;0.88;;
65073;SDS011;52218;51.224;-2.328;2022-12-29T07:25:00;5.97;;;0.82;;
65073;SDS011;52218;51.224;-2.328;2022-12-29T07:28:42;4.47;;;0.80;;
65073;SDS011;52218;51.224;-2.328;2022-12-29T07:32:24;4.20;;;0.90;;
65073;SDS011;52218;51.224;-2.328;2022-12-29T07:36:07;5.30;;;0.93;;
65073;SDS011;52218;51.224;-2.328;2022-12-29T07:39:49;5.50;;;1.00;;
65073;SDS011;52218;51.224;-2.328;2022-12-29T07:43:30;3.92;;;0.63;;
65073;SDS011;52218;51.224;-2.328;2022-12-29T07:47:12;4.20;;;1.00;;
65073;SDS011;52218;51.224;-2.328;2022-12-29T07:50:55;5.95;;;0.90;;
65073;SDS011;52218;51.224;-2.328;2022-12-29T07:54:37;2.25;;;0.60;;
65073;SDS011;52218;51.224;-2.328;2022-12-29T07:58:19;3.35;;;0.73;;
65073;SDS011;52218;51.224;-2.328;2022-12-29T08:02:00;2.38;;;0.50;;
65073;SDS011;52218;51.224;-2.328;2022-12-29T08:05:43;1.33;;;0.40;;
65073;SDS011;52218;51.224;-2.328;2022-12-29T08:09:25;2.08;;;0.40;;
65073;SDS011;52218;51.224;-2.328;2022-12-29T08:13:07;1.38;;;0.40;;
65073;SDS011;52218;51.224;-2.328;2022-12-29T08:16:49;3.40;;;0.40;;
65073;SDS011;52218;51.224;-2.328;2022-12-29T08:20:31;2.22;;;0.50;;
65073;SDS011;52218;51.224;-2.328;2022-12-29T08:24:14;2.55;;;0.50;;
65073;SDS011;52218;51.224;-2.328;2022-12-29T08:27:56;1.92;;;0.57;;
65073;SDS011;52218;51.224;-2.328;2022-12-29T08:31:38;2.08;;;0.65;;
65073;SDS011;52218;51.224;-2.328;2022-12-29T08:35:20;1.45;;;0.50;;
65073;SDS011;52218;51.224;-2.328;2022-12-29T08:39:02;3.42;;;0.63;;
65073;SDS011;52218;51.224;-2.328;2022-12-29T08:42:44;2.20;;;0.70;;
65073;SDS011;52218;51.224;-2.328;2022-12-29T08:46:26;2.88;;;0.73;;
65073;SDS011;52218;51.224;-2.328;2022-12-29T08:50:08;4.65;;;0.52;;
65073;SDS011;52218;51.224;-2.328;2022-12-29T08:53:50;3.67;;;0.70;;
65073;SDS011;52218;51.224;-2.328;2022-12-29T08:57:32;1.70;;;0.50;;
65073;SDS011;52218;51.224;-2.328;2022-12-29T09:01:14;2.30;;;0.40;;
65073;SDS011;52218;51.224;-2.328;2022-12-29T09:04:57;2.00;;;0.80;;
65073;SDS011;52218;51.224;-2.328;2022-12-29T09:08:40;2.53;;;0.55;;
65073;SDS011;52218;51.224;-2.328;2022-12-29T09:12:22;5.50;;;0.80;;
65073;SDS011;52218;51.224;-2.328;2022-12-29T09:16:04;3.72;;;0.68;;
65073;SDS011;52218;51.224;-2.328;2022-12-29T09:19:47;3.88;;;0.60;;
65073;SDS011;52218;51.224;-2.328;2022-12-29T09:23:29;3.10;;;0.70;;
65073;SDS011;52218;51.224;-2.328;2022-12-29T09:27:12;3.63;;;0.80;;
65073;SDS011;52218;51.224;-2.328;2022-12-29T09:30:54;3.13;;;0.73;;
65073;SDS011;52218;51.224;-2.328;2022-12-29T09:34:37;4.70;;;0.90;;
65073;SDS011;52218;51.224;-2.328;2022-12-29T09:38:19;3.70;;;0.80;;
65073;SDS011;52218;51.224;-2.328;2022-12-29T09:50:05;6.38;;;1.30;;
65073;SDS011;52218;51.224;-2.328;2022-12-29T09:53:53;4.53;;;1.05;;
65073;SDS011;52218;51.224;-2.328;2022-12-29T09:57:45;5.25;;;1.08;;
65073;SDS011;52218;51.224;-2.328;2022-12-29T10:02:36;6.22;;;1.20;;
65073;SDS011;52218;51.224;-2.328;2022-12-29T10:06:51;5.05;;;1.30;;
65073;SDS011;52218;51.224;-2.328;2022-12-29T10:15:18;4.50;;;0.95;;
65073;SDS011;52218;51.224;-2.328;2022-12-29T10:23:40;5.25;;;1.10;;
65073;SDS011;52218;51.224;-2.328;2022-12-29T10:27:30;6.13;;;1.20;;
65073;SDS011;52218;51.224;-2.328;2022-12-29T10:31:15;8.32;;;1.20;;
65073;SDS011;52218;51.224;-2.328;2022-12-29T10:35:09;7.05;;;1.30;;
65073;SDS011;52218;51.224;-2.328;2022-12-29T10:43:54;6.03;;;1.42;;
65073;SDS011;52218;51.224;-2.328;2022-12-29T10:47:27;5.35;;;1.10;;
65073;SDS011;52218;51.224;-2.328;2022-12-29T10:51:18;6.88;;;1.30;;
65073;SDS011;52218;51.224;-2.328;2022-12-29T10:55:09;6.85;;;1.17;;
65073;SDS011;52218;51.224;-2.328;2022-12-29T10:58:57;4.13;;;1.10;;
65073;SDS011;52218;51.224;-2.328;2022-12-29T11:06:36;7.45;;;1.48;;
65073;SDS011;52218;51.224;-2.328;2022-12-29T11:10:36;6.28;;;1.25;;
65073;SDS011;52218;51.224;-2.328;2022-12-29T11:14:28;6.78;;;1.60;;
65073;SDS011;52218;51.224;-2.328;2022-12-29T11:22:22;6.60;;;1.75;;
65073;SDS011;52218;51.224;-2.328;2022-12-29T11:26:11;6.82;;;1.75;;
65073;SDS011;52218;51.224;-2.328;2022-12-29T11:29:57;6.60;;;1.73;;
65073;SDS011;52218;51.224;-2.328;2022-12-29T11:33:39;9.60;;;2.20;;
65073;SDS011;52218;51.224;-2.328;2022-12-29T11:41:20;6.15;;;1.95;;
65073;SDS011;52218;51.224;-2.328;2022-12-29T11:45:17;9.20;;;1.50;;
65073;SDS011;52218;51.224;-2.328;2022-12-29T11:49:10;6.80;;;1.90;;
65073;SDS011;52218;51.224;-2.328;2022-12-29T11:53:02;6.22;;;1.80;;
65073;SDS011;52218;51.224;-2.328;2022-12-29T11:57:15;5.22;;;1.33;;
65073;SDS011;52218;51.224;-2.328;2022-12-29T12:01:04;3.85;;;1.08;;
65073;SDS011;52218;51.224;-2.328;2022-12-29T12:04:49;5.80;;;1.55;;
65073;SDS011;52218;51.224;-2.328;2022-12-29T12:08:45;4.95;;;1.10;;
65073;SDS011;52218;51.224;-2.328;2022-12-29T12:12:53;4.32;;;0.80;;
65073;SDS011;52218;51.224;-2.328;2022-12-29T12:16:42;6.15;;;1.23;;
65073;SDS011;52218;51.224;-2.328;2022-12-29T12:24:41;2.67;;;0.75;;
65073;SDS011;52218;51.224;-2.328;2022-12-29T12:28:53;4.47;;;0.80;;
65073;SDS011;52218;51.224;-2.328;2022-12-29T12:32:50;4.20;;;0.90;;
65073;SDS011;52218;51.224;-2.328;2022-12-29T12:48:37;3.15;;;0.68;;
65073;SDS011;52218;51.224;-2.328;2022-12-29T12:52:49;4.35;;;0.68;;
65073;SDS011;52218;51.224;-2.328;2022-12-29T13:05:02;2.83;;;0.60;;
65073;SDS011;52218;51.224;-2.328;2022-12-29T13:36:52;4.85;;;1.10;;
65073;SDS011;52218;51.224;-2.328;2022-12-29T13:40:41;3.88;;;0.98;;
65073;SDS011;52218;51.224;-2.328;2022-12-29T13:44:28;4.72;;;1.20;;
65073;SDS011;52218;51.224;-2.328;2022-12-29T13:52:55;6.28;;;1.20;;
65073;SDS011;52218;51.224;-2.328;2022-12-29T14:04:54;3.88;;;0.95;;
65073;SDS011;52218;51.224;-2.328;2022-12-29T14:08:41;3.92;;;0.93;;
65073;SDS011;52218;51.224;-2.328;2022-12-29T14:12:27;5.82;;;1.45;;
65073;SDS011;52218;51.224;-2.328;2022-12-29T14:16:32;6.38;;;1.02;;
65073;SDS011;52218;51.224;-2.328;2022-12-29T14:20:17;4.65;;;1.08;;
65073;SDS011;52218;51.224;-2.328;2022-12-29T14:24:46;4.57;;;0.85;;
65073;SDS011;52218;51.224;-2.328;2022-12-29T14:28:33;6.57;;;1.35;;
65073;SDS011;52218;51.224;-2.328;2022-12-29T14:47:49;5.72;;;1.40;;
65073;SDS011;52218;51.224;-2.328;2022-12-29T14:51:34;4.30;;;1.10;;
65073;SDS011;52218;51.224;-2.328;2022-12-29T14:59:00;3.55;;;0.90;;
65073;SDS011;52218;51.224;-2.328;2022-12-29T15:02:46;4.22;;;0.80;;
65073;SDS011;52218;51.224;-2.328;2022-12-29T15:10:16;3.60;;;1.00;;
65073;SDS011;52218;51.224;-2.328;2022-12-29T15:14:01;3.28;;;1.10;;
65073;SDS011;52218;51.224;-2.328;2022-12-29T15:17:43;4.25;;;0.90;;
65073;SDS011;52218;51.224;-2.328;2022-12-29T15:21:27;4.35;;;0.95;;
65073;SDS011;52218;51.224;-2.328;2022-12-29T15:25:14;4.53;;;1.15;;
65073;SDS011;52218;51.224;-2.328;2022-12-29T15:28:58;7.78;;;1.23;;
65073;SDS011;52218;51.224;-2.328;2022-12-29T15:32:42;6.13;;;1.20;;
65073;SDS011;52218;51.224;-2.328;2022-12-29T15:36:25;5.32;;;1.20;;
65073;SDS011;52218;51.224;-2.328;2022-12-29T15:40:19;4.35;;;1.23;;
65073;SDS011;52218;51.224;-2.328;2022-12-29T15:48:02;6.30;;;1.80;;
65073;SDS011;52218;51.224;-2.328;2022-12-29T15:51:46;3.45;;;0.80;;
65073;SDS011;52218;51.224;-2.328;2022-12-29T15:55:38;5.47;;;0.98;;
65073;SDS011;52218;51.224;-2.328;2022-12-29T16:03:05;4.25;;;1.20;;
65073;SDS011;52218;51.224;-2.328;2022-12-29T16:07:01;4.72;;;1.90;;
65073;SDS011;52218;51.224;-2.328;2022-12-29T16:10:47;3.38;;;0.70;;
65073;SDS011;52218;51.224;-2.328;2022-12-29T16:14:43;2.50;;;1.10;;
65073;SDS011;52218;51.224;-2.328;2022-12-29T16:18:35;2.85;;;1.10;;
65073;SDS011;52218;51.224;-2.328;2022-12-29T16:22:22;2.10;;;1.00;;
65073;SDS011;52218;51.224;-2.328;2022-12-29T16:26:15;2.17;;;0.80;;
65073;SDS011;52218;51.224;-2.328;2022-12-29T16:30:02;2.67;;;1.23;;
65073;SDS011;52218;51.224;-2.328;2022-12-29T16:33:51;4.47;;;1.10;;
65073;SDS011;52218;51.224;-2.328;2022-12-29T16:37:34;2.40;;;0.70;;
65073;SDS011;52218;51.224;-2.328;2022-12-29T16:41:30;3.25;;;1.13;;
65073;SDS011;52218;51.224;-2.328;2022-12-29T16:49:00;4.43;;;2.00;;
65073;SDS011;52218;51.224;-2.328;2022-12-29T16:52:42;5.38;;;2.50;;
65073;SDS011;52218;51.224;-2.328;2022-12-29T16:56:33;7.45;;;3.13;;
65073;SDS011;52218;51.224;-2.328;2022-12-29T17:04:05;4.22;;;1.75;;
65073;SDS011;52218;51.224;-2.328;2022-12-29T17:07:50;4.03;;;1.80;;
65073;SDS011;52218;51.224;-2.328;2022-12-29T17:11:36;6.82;;;1.73;;
65073;SDS011;52218;51.224;-2.328;2022-12-29T17:15:43;9.10;;;1.98;;
65073;SDS011;52218;51.224;-2.328;2022-12-29T17:19:29;6.45;;;1.63;;
65073;SDS011;52218;51.224;-2.328;2022-12-29T17:23:14;7.50;;;2.50;;
65073;SDS011;52218;51.224;-2.328;2022-12-29T17:27:04;5.45;;;2.20;;
65073;SDS011;52218;51.224;-2.328;2022-12-29T17:30:46;7.05;;;1.98;;
65073;SDS011;52218;51.224;-2.328;2022-12-29T17:34:29;3.55;;;1.52;;
65073;SDS011;52218;51.224;-2.328;2022-12-29T17:38:19;8.18;;;1.80;;
65073;SDS011;52218;51.224;-2.328;2022-12-29T17:42:04;7.35;;;1.63;;
65073;SDS011;52218;51.224;-2.328;2022-12-29T17:45:46;8.40;;;1.85;;
65073;SDS011;52218;51.224;-2.328;2022-12-29T17:49:35;6.20;;;1.85;;
65073;SDS011;52218;51.224;-2.328;2022-12-29T17:53:21;6.40;;;2.53;;
65073;SDS011;52218;51.224;-2.328;2022-12-29T17:57:08;6.43;;;2.03;;
65073;SDS011;52218;51.224;-2.328;2022-12-29T18:00:56;6.07;;;1.73;;
65073;SDS011;52218;51.224;-2.328;2022-12-29T18:04:40;7.15;;;2.60;;
65073;SDS011;52218;51.224;-2.328;2022-12-29T18:08:23;3.88;;;1.40;;
65073;SDS011;52218;51.224;-2.328;2022-12-29T18:12:05;5.97;;;2.00;;
65073;SDS011;52218;51.224;-2.328;2022-12-29T18:16:00;5.95;;;2.22;;
65073;SDS011;52218;51.224;-2.328;2022-12-29T18:19:43;7.35;;;2.55;;
65073;SDS011;52218;51.224;-2.328;2022-12-29T18:23:28;6.00;;;2.30;;
65073;SDS011;52218;51.224;-2.328;2022-12-29T18:27:13;4.93;;;1.98;;
65073;SDS011;52218;51.224;-2.328;2022-12-29T18:30:57;7.55;;;2.35;;
65073;SDS011;52218;51.224;-2.328;2022-12-29T18:34:41;5.00;;;2.28;;
65073;SDS011;52218;51.224;-2.328;2022-12-29T18:38:23;7.88;;;2.03;;
65073;SDS011;52218;51.224;-2.328;2022-12-29T18:42:06;3.88;;;2.00;;
65073;SDS011;52218;51.224;-2.328;2022-12-29T18:45:48;6.82;;;3.10;;
65073;SDS011;52218;51.224;-2.328;2022-12-29T18:49:31;6.55;;;2.38;;
65073;SDS011;52218;51.224;-2.328;2022-12-29T18:53:17;7.25;;;2.00;;
65073;SDS011;52218;51.224;-2.328;2022-12-29T18:57:01;5.57;;;1.80;;
65073;SDS011;52218;51.224;-2.328;2022-12-29T19:00:43;5.28;;;1.70;;
65073;SDS011;52218;51.224;-2.328;2022-12-29T19:04:26;4.72;;;1.63;;
65073;SDS011;52218;51.224;-2.328;2022-12-29T19:08:08;4.38;;;1.70;;
65073;SDS011;52218;51.224;-2.328;2022-12-29T19:11:51;7.75;;;3.78;;
65073;SDS011;52218;51.224;-2.328;2022-12-29T19:15:34;10.48;;;3.47;;
65073;SDS011;52218;51.224;-2.328;2022-12-29T19:19:20;4.07;;;2.17;;
65073;SDS011;52218;51.224;-2.328;2022-12-29T19:23:03;5.43;;;1.60;;
65073;SDS011;52218;51.224;-2.328;2022-12-29T19:26:48;3.90;;;1.63;;
65073;SDS011;52218;51.224;-2.328;2022-12-29T19:30:30;7.50;;;2.38;;
65073;SDS011;52218;51.224;-2.328;2022-12-29T19:34:14;4.60;;;2.00;;
65073;SDS011;52218;51.224;-2.328;2022-12-29T19:37:57;7.05;;;2.20;;
65073;SDS011;52218;51.224;-2.328;2022-12-29T19:41:39;7.95;;;2.80;;
65073;SDS011;52218;51.224;-2.328;2022-12-29T19:45:21;6.25;;;1.75;;
65073;SDS011;52218;51.224;-2.328;2022-12-29T19:49:03;5.03;;;1.63;;
65073;SDS011;52218;51.224;-2.328;2022-12-29T19:52:46;4.70;;;1.38;;
65073;SDS011;52218;51.224;-2.328;2022-12-29T19:56:28;5.82;;;1.40;;
65073;SDS011;52218;51.224;-2.328;2022-12-29T20:00:10;3.20;;;1.35;;
65073;SDS011;52218;51.224;-2.328;2022-12-29T20:03:53;2.92;;;1.40;;
65073;SDS011;52218;51.224;-2.328;2022-12-29T20:07:36;4.55;;;1.27;;
65073;SDS011;52218;51.224;-2.328;2022-12-29T20:11:18;7.55;;;2.60;;
65073;SDS011;52218;51.224;-2.328;2022-12-29T20:15:00;6.22;;;1.95;;
65073;SDS011;52218;51.224;-2.328;2022-12-29T20:18:42;5.57;;;1.88;;
65073;SDS011;52218;51.224;-2.328;2022-12-29T20:22:25;5.95;;;1.90;;
65073;SDS011;52218;51.224;-2.328;2022-12-29T20:26:10;4.10;;;1.92;;
65073;SDS011;52218;51.224;-2.328;2022-12-29T20:29:58;7.10;;;2.88;;
65073;SDS011;52218;51.224;-2.328;2022-12-29T20:33:40;6.28;;;2.60;;
65073;SDS011;52218;51.224;-2.328;2022-12-29T20:37:22;11.38;;;4.93;;
65073;SDS011;52218;51.224;-2.328;2022-12-29T20:41:04;12.48;;;3.35;;
65073;SDS011;52218;51.224;-2.328;2022-12-29T20:44:47;9.20;;;4.10;;
65073;SDS011;52218;51.224;-2.328;2022-12-29T20:48:31;13.85;;;4.13;;
65073;SDS011;52218;51.224;-2.328;2022-12-29T20:52:13;7.68;;;2.95;;
65073;SDS011;52218;51.224;-2.328;2022-12-29T20:55:59;7.00;;;2.55;;
65073;SDS011;52218;51.224;-2.328;2022-12-29T20:59:43;5.35;;;2.30;;
65073;SDS011;52218;51.224;-2.328;2022-12-29T21:03:26;9.43;;;2.70;;
65073;SDS011;52218;51.224;-2.328;2022-12-29T21:07:08;8.20;;;3.80;;
65073;SDS011;52218;51.224;-2.328;2022-12-29T21:10:56;8.65;;;2.97;;
65073;SDS011;52218;51.224;-2.328;2022-12-29T21:14:39;6.72;;;2.30;;
65073;SDS011;52218;51.224;-2.328;2022-12-29T21:22:08;6.78;;;2.30;;
65073;SDS011;52218;51.224;-2.328;2022-12-29T21:25:50;8.40;;;2.63;;
65073;SDS011;52218;51.224;-2.328;2022-12-29T21:29:33;7.68;;;2.40;;
65073;SDS011;52218;51.224;-2.328;2022-12-29T21:33:15;6.30;;;2.20;;
65073;SDS011;52218;51.224;-2.328;2022-12-29T21:37:01;6.72;;;2.58;;
65073;SDS011;52218;51.224;-2.328;2022-12-29T21:40:43;6.07;;;2.30;;
65073;SDS011;52218;51.224;-2.328;2022-12-29T21:44:25;6.03;;;2.10;;
65073;SDS011;52218;51.224;-2.328;2022-12-29T21:48:26;9.52;;;3.50;;
65073;SDS011;52218;51.224;-2.328;2022-12-29T21:52:10;8.25;;;3.88;;
65073;SDS011;52218;51.224;-2.328;2022-12-29T21:55:52;9.30;;;3.80;;
65073;SDS011;52218;51.224;-2.328;2022-12-29T21:59:34;9.32;;;3.13;;
65073;SDS011;52218;51.224;-2.328;2022-12-29T22:03:36;9.38;;;4.25;;
65073;SDS011;52218;51.224;-2.328;2022-12-29T22:07:37;12.55;;;4.38;;
65073;SDS011;52218;51.224;-2.328;2022-12-29T22:11:38;10.15;;;3.28;;
65073;SDS011;52218;51.224;-2.328;2022-12-29T22:15:38;8.15;;;2.42;;
65073;SDS011;52218;51.224;-2.328;2022-12-29T22:19:20;10.85;;;2.85;;
65073;SDS011;52218;51.224;-2.328;2022-12-29T22:23:02;8.27;;;3.00;;
65073;SDS011;52218;51.224;-2.328;2022-12-29T22:26:45;7.82;;;3.00;;
65073;SDS011;52218;51.224;-2.328;2022-12-29T22:30:27;7.93;;;1.83;;
65073;SDS011;52218;51.224;-2.328;2022-12-29T22:34:09;6.75;;;1.63;;
65073;SDS011;52218;51.224;-2.328;2022-12-29T22:37:51;6.90;;;1.40;;
65073;SDS011;52218;51.224;-2.328;2022-12-29T22:41:33;7.78;;;1.95;;
65073;SDS011;52218;51.224;-2.328;2022-12-29T22:45:15;6.28;;;1.77;;
65073;SDS011;52218;51.224;-2.328;2022-12-29T22:48:57;8.55;;;1.90;;
65073;SDS011;52218;51.224;-2.328;2022-12-29T22:52:39;8.23;;;1.63;;
65073;SDS011;52218;51.224;-2.328;2022-12-29T22:56:21;8.20;;;2.00;;
65073;SDS011;52218;51.224;-2.328;2022-12-29T23:00:04;7.15;;;1.70;;
65073;SDS011;52218;51.224;-2.328;2022-12-29T23:03:48;6.05;;;1.35;;
65073;SDS011;52218;51.224;-2.328;2022-12-29T23:07:31;5.90;;;1.40;;
65073;SDS011;52218;51.224;-2.328;2022-12-29T23:11:14;9.02;;;1.55;;
65073;SDS011;52218;51.224;-2.328;2022-12-29T23:14:57;7.53;;;1.65;;
65073;SDS011;52218;51.224;-2.328;2022-12-29T23:18:39;11.75;;;1.88;;
65073;SDS011;52218;51.224;-2.328;2022-12-29T23:22:21;8.93;;;1.33;;
65073;SDS011;52218;51.224;-2.328;2022-12-29T23:26:05;5.03;;;1.15;;
65073;SDS011;52218;51.224;-2.328;2022-12-29T23:29:48;10.05;;;1.27;;
65073;SDS011;52218;51.224;-2.328;2022-12-29T23:33:30;6.22;;;1.40;;
65073;SDS011;52218;51.224;-2.328;2022-12-29T23:37:12;6.72;;;1.10;;
65073;SDS011;52218;51.224;-2.328;2022-12-29T23:40:54;4.78;;;1.30;;
65073;SDS011;52218;51.224;-2.328;2022-12-29T23:44:36;6.05;;;1.45;;
65073;SDS011;52218;51.224;-2.328;2022-12-29T23:48:18;9.35;;;1.88;;
65073;SDS011;52218;51.224;-2.328;2022-12-29T23:52:00;9.70;;;1.70;;
65073;SDS011;52218;51.224;-2.328;2022-12-29T23:55:42;9.68;;;1.17;;
65073;SDS011;52218;51.224;-2.328;2022-12-29T23:59:24;6.38;;;1.40;;
